createdAt,value
2023-06-07T00:01:53.752Z,51.76
2023-06-07T00:04:20.339Z,52.35
2023-06-07T00:06:48.258Z,51.37
2023-06-07T00:09:15.365Z,52.31
2023-06-07T00:11:43.624Z,54.01
2023-06-07T00:14:10.153Z,53.89
2023-06-07T00:16:36.639Z,52.63
2023-06-07T00:19:04.642Z,53.27
2023-06-07T00:21:31.357Z,52.09
2023-06-07T00:23:57.961Z,53.51
2023-06-07T00:26:25.094Z,51.37
2023-06-07T00:28:52.534Z,52.39
2023-06-07T00:31:19.031Z,53.09
2023-06-07T00:33:45.695Z,51.94
2023-06-07T00:36:12.130Z,53.24
2023-06-07T00:38:38.680Z,53.68
2023-06-07T00:41:05.177Z,51.86
2023-06-07T00:43:31.637Z,52.94
2023-06-07T00:45:58.300Z,51.91
2023-06-07T00:48:24.839Z,53.01
2023-06-07T00:50:52.379Z,51.69
2023-06-07T00:53:18.974Z,51.15
2023-06-07T00:55:46.378Z,50.98
2023-06-07T00:58:12.949Z,51.05
2023-06-07T01:00:39.419Z,50.85
2023-06-07T01:03:07.119Z,52.39
2023-06-07T01:05:34.283Z,51.14
2023-06-07T01:08:01.384Z,52.03
2023-06-07T01:10:28.494Z,50.90
2023-06-07T01:12:58.065Z,51.04
2023-06-07T01:15:25.505Z,50.88
2023-06-07T01:17:54.966Z,51.20
2023-06-07T01:20:25.533Z,51.28
2023-06-07T01:22:58.045Z,52.82
2023-06-07T01:25:25.299Z,51.50
2023-06-07T01:27:58.138Z,53.16
2023-06-07T01:30:26.043Z,52.03
2023-06-07T01:32:53.801Z,53.27
2023-06-07T01:51:42.451Z,56.99
2023-06-07T01:54:09.369Z,54.68
2023-06-07T01:56:54.663Z,54.38
2023-06-07T01:59:21.252Z,55.31
2023-06-07T02:01:50.919Z,56.16
2023-06-07T02:04:20.925Z,53.83
2023-06-07T02:06:51.891Z,54.52
2023-06-07T02:09:20.393Z,54.78
2023-06-07T02:11:47.784Z,53.93
2023-06-07T02:14:14.352Z,54.44
2023-06-07T02:16:41.755Z,54.77
2023-06-07T02:19:09.171Z,55.13
2023-06-07T02:21:37.604Z,53.89
2023-06-07T02:24:05.411Z,54.98
2023-06-07T02:26:31.888Z,54.89
2023-06-07T02:28:58.367Z,54.76
2023-06-07T02:31:25.640Z,55.33
2023-06-07T02:33:52.737Z,55.59
2023-06-07T02:36:22.229Z,54.57
2023-06-07T02:38:49.302Z,55.08
2023-06-07T02:41:16.827Z,55.48
2023-06-07T02:43:44.986Z,55.74
2023-06-07T02:46:12.621Z,55.45
2023-06-07T02:48:39.940Z,55.76
2023-06-07T02:51:06.523Z,55.41
2023-06-07T02:53:32.957Z,55.41
2023-06-07T02:55:59.460Z,55.15
2023-06-07T02:58:25.953Z,54.16
2023-06-07T03:00:55.618Z,55.07
2023-06-07T03:03:22.343Z,55.81
2023-06-07T03:05:50.832Z,54.86
2023-06-07T03:08:17.368Z,55.48
2023-06-07T03:10:43.874Z,55.47
2023-06-07T03:13:10.330Z,55.26
2023-06-07T03:15:39.772Z,53.59
2023-06-07T03:18:06.402Z,54.23
2023-06-07T03:20:35.760Z,55.33
2023-06-07T03:23:04.060Z,55.51
2023-06-07T03:25:31.301Z,55.20
2023-06-07T03:27:58.257Z,56.21
2023-06-07T03:30:24.787Z,56.48
2023-06-07T03:32:52.223Z,56.89
2023-06-07T03:35:19.556Z,57.20
2023-06-07T03:37:46.042Z,56.96
2023-06-07T03:40:13.144Z,56.86
2023-06-07T03:42:39.928Z,55.33
2023-06-07T03:45:06.999Z,55.24
2023-06-07T03:47:33.974Z,57.38
2023-06-07T03:50:00.887Z,56.66
2023-06-07T03:52:27.267Z,55.75
2023-06-07T03:54:53.833Z,56.70
2023-06-07T03:57:20.331Z,57.39
2023-06-07T03:59:46.807Z,57.45
2023-06-07T04:02:13.630Z,57.25
2023-06-07T04:04:40.230Z,57.14
2023-06-07T04:07:08.607Z,56.75
2023-06-07T04:09:35.196Z,57.00
2023-06-07T04:12:05.637Z,56.95
2023-06-07T04:14:32.088Z,57.71
2023-06-07T04:16:58.645Z,57.82
2023-06-07T04:19:25.147Z,56.68
2023-06-07T04:21:54.153Z,56.77
2023-06-07T04:24:20.740Z,56.91
2023-06-07T04:26:49.253Z,55.73
2023-06-07T04:29:16.121Z,53.73
2023-06-07T04:31:43.626Z,54.83
2023-06-07T04:34:11.288Z,52.91
2023-06-07T04:36:40.166Z,52.83
2023-06-07T04:39:10.262Z,54.71
2023-06-07T04:41:37.371Z,54.88
2023-06-07T04:44:06.846Z,54.90
2023-06-07T04:46:33.409Z,55.47
2023-06-07T04:49:00.298Z,53.21
2023-06-07T04:51:30.550Z,57.45
2023-06-07T04:53:59.664Z,53.40
2023-06-07T04:56:29.633Z,53.21
2023-06-07T04:58:56.778Z,53.44
2023-06-07T05:01:24.145Z,56.24
2023-06-07T05:03:58.526Z,55.25
2023-06-07T05:06:25.024Z,54.94
2023-06-07T05:08:51.599Z,53.59
2023-06-07T05:11:18.089Z,56.93
2023-06-07T05:13:44.561Z,57.69
2023-06-07T05:16:17.426Z,54.23
2023-06-07T05:18:47.438Z,54.95
2023-06-07T05:21:15.230Z,55.30
2023-06-07T05:23:45.207Z,53.27
2023-06-07T05:26:12.392Z,52.80
2023-06-07T05:28:39.048Z,52.00
2023-06-07T05:31:05.739Z,51.60
2023-06-07T05:33:32.269Z,51.75
2023-06-07T05:35:59.184Z,56.11
2023-06-07T05:38:26.670Z,52.80
2023-06-07T05:40:55.494Z,55.10
2023-06-07T05:43:22.024Z,52.45
2023-06-07T05:45:48.661Z,51.11
2023-06-07T05:48:15.225Z,54.33
2023-06-07T05:50:41.784Z,53.76
2023-06-07T05:53:08.400Z,51.47
2023-06-07T05:55:35.766Z,50.05
2023-06-07T05:58:02.259Z,52.15
2023-06-07T06:00:29.893Z,52.44
2023-06-07T06:02:57.874Z,53.22
2023-06-07T06:05:29.298Z,52.68
2023-06-07T06:07:59.376Z,49.82
2023-06-07T06:10:27.301Z,50.35
2023-06-07T06:12:56.810Z,50.81
2023-06-07T06:15:25.712Z,51.78
2023-06-07T06:17:55.492Z,51.12
2023-06-07T06:20:23.108Z,51.93
2023-06-07T06:22:49.884Z,53.04
2023-06-07T06:25:16.369Z,48.99
2023-06-07T06:27:43.183Z,51.27
2023-06-07T06:30:10.134Z,54.42
2023-06-07T06:32:36.994Z,48.24
2023-06-07T06:35:04.431Z,48.37
2023-06-07T06:37:31.100Z,49.87
2023-06-07T06:39:57.616Z,50.27
2023-06-07T06:42:24.216Z,51.70
2023-06-07T06:44:50.794Z,52.10
2023-06-07T06:47:17.341Z,54.02
2023-06-07T06:49:43.950Z,52.84
2023-06-07T06:52:11.476Z,50.57
2023-06-07T06:54:38.005Z,49.43
2023-06-07T06:57:04.909Z,47.37
2023-06-07T06:59:31.446Z,44.78
2023-06-07T07:01:58.151Z,46.75
2023-06-07T07:04:24.831Z,48.56
2023-06-07T07:06:54.402Z,45.19
2023-06-07T07:09:20.998Z,41.79
2023-06-07T07:11:47.425Z,41.38
2023-06-07T07:14:13.985Z,42.89
2023-06-07T07:16:40.690Z,43.13
2023-06-07T07:19:07.252Z,44.73
2023-06-07T07:21:33.804Z,44.64
2023-06-07T07:24:00.694Z,44.34
2023-06-07T07:26:28.562Z,45.14
2023-06-07T07:28:55.098Z,42.27
2023-06-07T07:31:22.428Z,44.72
2023-06-07T07:33:49.506Z,40.72
2023-06-07T07:36:17.432Z,44.23
2023-06-07T07:38:47.113Z,45.00
2023-06-07T07:41:15.340Z,40.77
2023-06-07T07:43:42.048Z,42.32
2023-06-07T07:46:08.853Z,45.89
2023-06-07T07:48:38.429Z,43.69
2023-06-07T07:51:05.676Z,40.99
2023-06-07T07:53:32.616Z,38.00
2023-06-07T07:55:59.096Z,42.00
2023-06-07T07:58:26.654Z,39.12
2023-06-07T08:00:53.900Z,41.29
2023-06-07T08:03:20.805Z,40.25
2023-06-07T08:05:47.467Z,36.88
2023-06-07T08:08:15.924Z,37.21
2023-06-07T08:10:42.472Z,36.10
2023-06-07T08:13:08.875Z,37.13
2023-06-07T08:15:35.407Z,39.66
2023-06-07T08:18:01.901Z,38.46
2023-06-07T08:20:28.709Z,34.68
2023-06-07T08:22:55.285Z,38.42
2023-06-07T08:25:21.854Z,37.70
2023-06-07T08:27:48.414Z,35.44
2023-06-07T08:30:15.361Z,36.60
2023-06-07T08:32:46.323Z,34.04
2023-06-07T08:35:13.002Z,36.25
2023-06-07T08:37:39.541Z,33.53
2023-06-07T08:40:07.365Z,34.22
2023-06-07T08:42:34.858Z,33.40
2023-06-07T08:45:02.062Z,33.48
2023-06-07T08:47:29.780Z,34.37
2023-06-07T08:49:57.617Z,39.46
2023-06-07T08:52:27.897Z,36.00
2023-06-07T08:54:59.858Z,38.09
2023-06-07T08:57:27.301Z,36.44
2023-06-07T08:59:53.979Z,38.06
2023-06-07T09:02:25.722Z,38.86
2023-06-07T09:04:52.625Z,38.16
2023-06-07T09:07:19.226Z,39.80
2023-06-07T09:09:45.740Z,35.87
2023-06-07T09:12:12.554Z,36.14
2023-06-07T09:14:39.372Z,38.37
2023-06-07T09:17:06.338Z,34.66
2023-06-07T09:19:39.043Z,34.77
2023-06-07T09:22:08.459Z,36.85
2023-06-07T09:24:35.861Z,33.08
2023-06-07T09:27:04.457Z,35.62
2023-06-07T09:29:40.092Z,36.26
2023-06-07T09:32:25.305Z,35.18
2023-06-07T09:34:54.358Z,35.94
2023-06-07T09:37:23.741Z,35.52
2023-06-07T09:39:54.698Z,37.90
2023-06-07T09:42:22.117Z,39.81
2023-06-07T09:44:49.328Z,42.46
2023-06-07T09:47:24.881Z,37.50
2023-06-07T09:50:20.120Z,40.12
2023-06-07T09:52:56.160Z,33.74
2023-06-07T09:55:28.775Z,35.01
2023-06-07T09:58:26.388Z,33.84
2023-06-07T10:00:55.145Z,32.93
2023-06-07T10:03:21.982Z,31.66
2023-06-07T10:05:48.755Z,32.44
2023-06-07T10:08:20.864Z,33.04
2023-06-07T10:10:49.920Z,40.22
2023-06-07T10:13:19.520Z,40.79
2023-06-07T10:15:47.569Z,35.32
2023-06-07T10:18:20.207Z,38.95
2023-06-07T10:21:02.067Z,38.21
2023-06-07T10:23:48.442Z,38.97
2023-06-07T10:26:44.466Z,35.73
2023-06-07T10:29:21.845Z,35.04
2023-06-07T10:31:59.208Z,33.68
2023-06-07T10:34:28.561Z,36.63
2023-06-07T10:36:55.488Z,33.24
2023-06-07T10:39:22.290Z,32.63
2023-06-07T10:41:49.545Z,32.00
2023-06-07T10:44:16.781Z,35.61
2023-06-07T10:46:43.442Z,30.79
2023-06-07T10:49:40.819Z,30.72
2023-06-07T10:52:07.749Z,29.41
2023-06-07T10:54:41.811Z,29.08
2023-06-07T10:57:08.524Z,29.20
2023-06-07T10:59:39.056Z,29.79
2023-06-07T11:02:25.485Z,30.47
2023-06-07T11:04:54.512Z,28.27
2023-06-07T11:07:30.016Z,29.59
2023-06-07T11:10:09.317Z,29.07
2023-06-07T11:12:36.276Z,27.98
2023-06-07T11:15:18.311Z,30.90
2023-06-07T11:18:01.586Z,33.21
2023-06-07T11:20:37.901Z,29.74
2023-06-07T11:23:24.223Z,28.68
2023-06-07T11:26:09.793Z,30.80
2023-06-07T11:28:39.302Z,27.87
2023-06-07T11:31:13.117Z,30.50
2023-06-07T11:33:43.874Z,27.91
2023-06-07T11:36:20.433Z,29.97
2023-06-07T11:38:51.708Z,29.68
2023-06-07T11:41:18.385Z,30.54
2023-06-07T11:43:46.796Z,30.45
2023-06-07T11:46:19.299Z,31.04
2023-06-07T11:48:46.790Z,29.32
2023-06-07T11:51:14.021Z,34.99
2023-06-07T11:53:40.515Z,29.95
2023-06-07T11:56:34.737Z,28.96
2023-06-07T11:59:01.702Z,28.88
2023-06-07T12:01:28.944Z,30.86
2023-06-07T12:03:57.291Z,30.20
2023-06-07T12:06:27.622Z,30.63
2023-06-07T12:08:54.142Z,29.82
2023-06-07T12:11:28.359Z,32.82
2023-06-07T12:14:02.665Z,34.17
2023-06-07T12:26:16.460Z,29.61
2023-06-07T12:28:56.028Z,30.67
2023-06-07T12:31:34.378Z,28.84
2023-06-07T12:34:08.379Z,27.59
2023-06-07T12:36:36.492Z,27.58
2023-06-07T12:39:18.648Z,27.61
2023-06-07T12:42:06.526Z,29.67
2023-06-07T12:48:24.763Z,26.86
2023-06-07T12:50:51.684Z,28.29
2023-06-07T12:53:55.193Z,30.41
2023-06-07T12:56:22.636Z,28.38
2023-06-07T13:16:57.235Z,27.70
2023-06-07T13:19:25.573Z,27.24
2023-06-07T13:22:44.778Z,25.97
2023-06-07T13:25:11.308Z,26.70
2023-06-07T13:27:46.291Z,26.75
2023-06-07T13:30:59.769Z,26.14
2023-06-07T13:33:29.208Z,26.31
2023-06-07T13:46:36.047Z,26.29
2023-06-07T13:49:06.886Z,25.52
2023-06-07T13:51:36.812Z,25.48
2023-06-07T13:54:03.720Z,26.71
2023-06-07T13:56:30.247Z,26.45
2023-06-07T13:59:16.043Z,24.99
2023-06-07T14:01:44.780Z,25.70
2023-06-07T14:07:28.694Z,27.63
2023-06-07T14:21:07.493Z,27.69
2023-06-07T14:23:41.140Z,25.96
2023-06-07T14:26:07.668Z,25.97
2023-06-07T14:28:39.941Z,25.78
2023-06-07T14:31:09.714Z,24.91
2023-06-07T14:33:45.824Z,25.98
2023-06-07T14:36:42.764Z,27.45
2023-06-07T14:39:12.684Z,26.74
2023-06-07T14:44:38.690Z,27.76
2023-06-07T14:53:26.598Z,26.45
2023-06-07T14:56:04.683Z,26.16
2023-06-07T14:58:53.820Z,29.69
2023-06-07T15:01:28.109Z,27.08
2023-06-07T15:08:07.422Z,27.17
2023-06-07T15:10:34.021Z,28.67
2023-06-07T15:13:00.906Z,26.56
2023-06-07T15:15:29.355Z,27.64
2023-06-07T15:17:57.960Z,29.02
2023-06-07T15:20:27.800Z,27.50
2023-06-07T15:22:54.440Z,30.33
2023-06-07T15:25:21.198Z,32.11
2023-06-07T15:27:47.821Z,33.48
2023-06-07T15:30:14.432Z,33.53
2023-06-07T15:32:41.170Z,30.18
2023-06-07T15:35:10.808Z,31.32
2023-06-07T15:37:39.162Z,33.38
2023-06-07T15:40:07.186Z,30.22
2023-06-07T15:42:37.665Z,32.61
2023-06-07T15:45:06.356Z,30.84
2023-06-07T15:47:32.974Z,32.86
2023-06-07T15:53:34.963Z,29.87
2023-06-07T15:56:01.475Z,32.77
2023-06-07T15:58:27.963Z,32.20
2023-06-07T16:00:54.424Z,32.64
2023-06-07T16:03:21.618Z,32.71
2023-06-07T16:05:48.609Z,33.90
2023-06-07T16:08:15.181Z,32.46
2023-06-07T16:10:41.730Z,31.15
2023-06-07T16:13:08.189Z,30.50
2023-06-07T16:15:35.136Z,34.05
2023-06-07T16:18:01.642Z,30.62
2023-06-07T16:20:28.708Z,30.04
2023-06-07T16:22:55.443Z,31.73
2023-06-07T16:25:21.920Z,29.49
2023-06-07T16:27:48.439Z,32.59
2023-06-07T16:30:15.196Z,32.13
2023-06-07T16:32:41.764Z,32.59
2023-06-07T16:35:08.410Z,33.84
2023-06-07T16:37:34.963Z,30.85
2023-06-07T16:40:01.545Z,33.78
2023-06-07T16:42:30.026Z,32.44
2023-06-07T16:44:57.746Z,30.50
2023-06-07T16:47:26.093Z,31.38
2023-06-07T16:49:56.847Z,32.16
2023-06-07T16:52:23.745Z,31.57
2023-06-07T16:54:57.342Z,33.65
2023-06-07T16:57:27.147Z,30.41
2023-06-07T16:59:53.745Z,29.39
2023-06-07T17:02:20.625Z,29.07
2023-06-07T17:04:47.261Z,29.17
2023-06-07T17:07:13.936Z,29.94
2023-06-07T17:09:40.635Z,28.76
2023-06-07T17:12:08.128Z,30.38
2023-06-07T17:14:34.695Z,31.18
2023-06-07T17:17:07.519Z,29.20
2023-06-07T17:19:36.735Z,29.45
2023-06-07T17:22:12.978Z,31.34
2023-06-07T17:24:39.568Z,29.65
2023-06-07T17:27:36.566Z,31.67
2023-06-07T17:38:24.177Z,30.37
2023-06-07T17:40:50.904Z,30.32
2023-06-07T17:43:17.569Z,30.85
2023-06-07T17:45:45.232Z,33.76
2023-06-07T17:48:18.073Z,34.13
2023-06-07T17:50:56.673Z,31.59
2023-06-07T17:53:23.375Z,31.67
2023-06-07T17:55:50.417Z,31.31
2023-06-07T17:58:17.615Z,31.76
2023-06-07T18:00:48.781Z,35.48
2023-06-07T18:03:19.736Z,31.56
2023-06-07T18:05:47.061Z,31.95
2023-06-07T18:08:13.808Z,33.24
2023-06-07T18:10:40.695Z,35.40
2023-06-07T18:13:07.432Z,31.77
2023-06-07T18:15:35.918Z,34.87
2023-06-07T18:18:02.649Z,31.97
2023-06-07T18:20:29.682Z,34.92
2023-06-07T18:22:57.894Z,35.46
2023-06-07T18:25:27.702Z,35.70
2023-06-07T18:27:54.242Z,34.67
2023-06-07T18:30:20.811Z,37.18
2023-06-07T18:33:07.174Z,37.95
2023-06-07T18:35:38.819Z,37.69
2023-06-07T18:38:15.181Z,38.12
2023-06-07T18:40:41.840Z,36.25
2023-06-07T18:43:17.869Z,36.30
2023-06-07T18:45:44.678Z,38.05
2023-06-07T18:48:11.648Z,38.15
2023-06-07T18:50:38.524Z,37.28
2023-06-07T18:53:05.166Z,40.60
2023-06-07T18:55:31.851Z,38.24
2023-06-07T18:57:58.444Z,37.63
2023-06-07T19:00:25.447Z,37.85
2023-06-07T19:02:52.892Z,38.87
2023-06-07T19:05:26.250Z,38.14
2023-06-07T19:07:53.025Z,39.53
2023-06-07T19:10:19.701Z,37.11
2023-06-07T19:12:55.912Z,38.95
2023-06-07T19:15:22.780Z,39.66
2023-06-07T19:17:52.657Z,39.24
2023-06-07T19:20:19.487Z,38.59
2023-06-07T19:22:49.897Z,39.16
2023-06-07T19:25:17.349Z,40.40
2023-06-07T19:27:47.181Z,41.07
2023-06-07T19:30:21.396Z,42.21
2023-06-07T19:32:49.735Z,40.46
2023-06-07T19:35:19.695Z,40.24
2023-06-07T19:37:58.278Z,41.29
2023-06-07T19:58:23.241Z,42.63
2023-06-07T20:04:30.686Z,43.77
2023-06-07T20:06:59.896Z,44.04
2023-06-07T20:09:29.405Z,44.28
2023-06-07T20:12:04.087Z,45.00
2023-06-07T20:17:48.574Z,45.39
2023-06-07T20:20:15.859Z,44.57
2023-06-07T20:22:46.180Z,41.96
2023-06-07T20:25:12.839Z,45.42
2023-06-07T20:27:39.284Z,44.44
2023-06-07T20:30:07.103Z,45.81
2023-06-07T20:32:33.856Z,45.28
2023-06-07T20:35:00.330Z,45.58
2023-06-07T20:37:26.800Z,45.65
2023-06-07T20:39:53.313Z,44.57
2023-06-07T20:42:22.440Z,44.79
2023-06-07T20:44:53.388Z,44.51
2023-06-07T20:47:20.804Z,45.37
2023-06-07T20:49:47.298Z,44.79
2023-06-07T20:52:13.775Z,45.45
2023-06-07T20:54:40.290Z,45.35
2023-06-07T20:57:07.305Z,45.62
2023-06-07T20:59:34.976Z,46.75
2023-06-07T21:02:01.751Z,45.42
2023-06-07T21:04:28.341Z,46.30
2023-06-07T21:07:30.654Z,45.15
2023-06-07T21:09:57.295Z,44.36
2023-06-07T21:12:24.016Z,45.02
2023-06-07T21:14:52.405Z,45.84
2023-06-07T21:17:19.083Z,46.32
2023-06-07T21:19:47.932Z,45.81
2023-06-07T21:22:14.413Z,46.67
2023-06-07T21:24:40.947Z,46.22
2023-06-07T21:27:07.959Z,45.86
2023-06-07T21:29:35.295Z,43.92
2023-06-07T21:32:04.889Z,46.46
2023-06-07T21:34:31.533Z,45.78
2023-06-07T21:36:58.082Z,46.39
2023-06-07T21:39:24.601Z,47.18
2023-06-07T21:41:51.168Z,46.08
2023-06-07T21:44:17.654Z,46.41
2023-06-07T21:46:44.216Z,45.71
2023-06-07T21:49:11.916Z,45.49
2023-06-07T21:51:40.687Z,44.25
2023-06-07T21:54:07.744Z,44.77
2023-06-07T21:56:34.268Z,45.95
2023-06-07T21:59:00.951Z,46.49
2023-06-07T22:01:29.869Z,45.13
2023-06-07T22:03:56.554Z,46.43
2023-06-07T22:06:23.003Z,46.77
2023-06-07T22:08:49.484Z,46.50
2023-06-07T22:11:19.172Z,46.08
2023-06-07T22:13:45.819Z,46.13
2023-06-07T22:16:13.797Z,46.23
2023-06-07T22:18:41.427Z,46.41
2023-06-07T22:21:08.042Z,46.44
2023-06-07T22:23:34.526Z,46.48
2023-06-07T22:26:01.191Z,47.89
2023-06-07T22:28:30.746Z,47.47
2023-06-07T22:30:58.667Z,47.72
2023-06-07T22:33:25.593Z,46.89
2023-06-07T22:35:57.850Z,45.50
2023-06-07T22:38:25.270Z,47.69
2023-06-07T22:40:54.647Z,47.83
2023-06-07T22:43:21.551Z,47.20
2023-06-07T22:45:48.364Z,47.58
2023-06-07T22:48:16.840Z,47.50
2023-06-07T22:50:43.503Z,46.85
2023-06-07T22:53:13.848Z,47.53
2023-06-07T22:55:42.142Z,48.26
2023-06-07T22:58:08.771Z,47.98
2023-06-07T23:00:36.068Z,48.31
2023-06-07T23:03:05.059Z,48.60
2023-06-07T23:05:31.723Z,48.80
2023-06-07T23:07:58.706Z,49.29
2023-06-07T23:10:35.379Z,48.81
2023-06-07T23:13:08.275Z,48.74
2023-06-07T23:15:36.557Z,49.14
2023-06-07T23:18:03.507Z,48.87
2023-06-07T23:20:34.105Z,49.79
2023-06-07T23:23:04.701Z,49.42
2023-06-07T23:25:31.885Z,49.75
2023-06-07T23:28:01.654Z,49.33
2023-06-07T23:30:28.214Z,50.55
2023-06-07T23:32:54.738Z,49.99
2023-06-07T23:35:21.698Z,50.00
2023-06-07T23:37:48.926Z,50.30
2023-06-07T23:40:16.978Z,50.12
2023-06-07T23:42:44.945Z,50.50
2023-06-07T23:45:14.521Z,49.90
2023-06-07T23:47:41.180Z,49.65
2023-06-07T23:50:08.864Z,49.99
2023-06-07T23:52:36.466Z,50.54
2023-06-07T23:55:03.263Z,50.92
2023-06-07T23:57:30.352Z,51.31
2023-06-07T23:59:57.290Z,50.65
